sensor_id;sensor_type;location;lat;lon;timestamp;P1;durP1;ratioP1;P2;durP2;ratioP2
44068;SDS011;29738;51.234;5.484;2022-10-15T00:00:32;24.33;;;15.27;;
44068;SDS011;29738;51.234;5.484;2022-10-15T00:02:57;24.58;;;14.35;;
44068;SDS011;29738;51.234;5.484;2022-10-15T00:05:23;21.98;;;13.00;;
44068;SDS011;29738;51.234;5.484;2022-10-15T00:07:49;22.52;;;13.02;;
44068;SDS011;29738;51.234;5.484;2022-10-15T00:10:15;22.63;;;13.18;;
44068;SDS011;29738;51.234;5.484;2022-10-15T00:12:41;22.85;;;13.25;;
44068;SDS011;29738;51.234;5.484;2022-10-15T00:15:07;22.20;;;13.93;;
44068;SDS011;29738;51.234;5.484;2022-10-15T00:17:34;20.05;;;12.05;;
44068;SDS011;29738;51.234;5.484;2022-10-15T00:20:02;20.92;;;13.07;;
44068;SDS011;29738;51.234;5.484;2022-10-15T00:22:29;20.63;;;13.20;;
44068;SDS011;29738;51.234;5.484;2022-10-15T00:24:55;22.27;;;13.15;;
44068;SDS011;29738;51.234;5.484;2022-10-15T00:27:20;20.40;;;11.60;;
44068;SDS011;29738;51.234;5.484;2022-10-15T00:29:46;21.10;;;12.23;;
44068;SDS011;29738;51.234;5.484;2022-10-15T00:32:12;22.98;;;12.30;;
44068;SDS011;29738;51.234;5.484;2022-10-15T00:34:38;17.83;;;11.20;;
44068;SDS011;29738;51.234;5.484;2022-10-15T00:37:04;18.15;;;10.98;;
44068;SDS011;29738;51.234;5.484;2022-10-15T00:39:30;17.08;;;10.38;;
44068;SDS011;29738;51.234;5.484;2022-10-15T00:41:56;18.17;;;10.07;;
44068;SDS011;29738;51.234;5.484;2022-10-15T00:49:26;16.85;;;9.45;;
44068;SDS011;29738;51.234;5.484;2022-10-15T00:54:58;15.65;;;9.57;;
44068;SDS011;29738;51.234;5.484;2022-10-15T00:57:48;17.80;;;11.15;;
44068;SDS011;29738;51.234;5.484;2022-10-15T01:00:15;22.88;;;10.75;;
44068;SDS011;29738;51.234;5.484;2022-10-15T01:02:42;19.67;;;11.27;;
44068;SDS011;29738;51.234;5.484;2022-10-15T01:05:09;18.15;;;10.48;;
44068;SDS011;29738;51.234;5.484;2022-10-15T01:07:36;18.02;;;10.93;;
44068;SDS011;29738;51.234;5.484;2022-10-15T01:10:02;20.75;;;10.73;;
44068;SDS011;29738;51.234;5.484;2022-10-15T01:15:48;23.92;;;12.13;;
44068;SDS011;29738;51.234;5.484;2022-10-15T01:18:51;18.42;;;11.05;;
44068;SDS011;29738;51.234;5.484;2022-10-15T01:21:20;21.02;;;11.52;;
44068;SDS011;29738;51.234;5.484;2022-10-15T01:34:32;23.63;;;14.40;;
44068;SDS011;29738;51.234;5.484;2022-10-15T01:39:43;25.67;;;13.73;;
44068;SDS011;29738;51.234;5.484;2022-10-15T01:42:16;21.42;;;12.55;;
44068;SDS011;29738;51.234;5.484;2022-10-15T01:44:52;23.23;;;13.18;;
44068;SDS011;29738;51.234;5.484;2022-10-15T01:47:23;25.50;;;12.70;;
44068;SDS011;29738;51.234;5.484;2022-10-15T01:50:07;21.73;;;12.43;;
44068;SDS011;29738;51.234;5.484;2022-10-15T01:52:37;23.02;;;11.77;;
44068;SDS011;29738;51.234;5.484;2022-10-15T01:55:05;20.55;;;12.30;;
44068;SDS011;29738;51.234;5.484;2022-10-15T01:57:33;22.35;;;13.05;;
44068;SDS011;29738;51.234;5.484;2022-10-15T02:00:00;20.33;;;12.57;;
44068;SDS011;29738;51.234;5.484;2022-10-15T02:02:28;24.90;;;13.18;;
44068;SDS011;29738;51.234;5.484;2022-10-15T02:04:54;21.05;;;12.50;;
44068;SDS011;29738;51.234;5.484;2022-10-15T02:10:13;21.35;;;11.73;;
44068;SDS011;29738;51.234;5.484;2022-10-15T02:16:05;19.15;;;10.77;;
44068;SDS011;29738;51.234;5.484;2022-10-15T02:19:20;21.65;;;11.15;;
44068;SDS011;29738;51.234;5.484;2022-10-15T02:24:24;18.40;;;10.30;;
44068;SDS011;29738;51.234;5.484;2022-10-15T02:26:54;18.38;;;9.98;;
44068;SDS011;29738;51.234;5.484;2022-10-15T02:29:23;20.63;;;10.10;;
44068;SDS011;29738;51.234;5.484;2022-10-15T02:31:51;19.73;;;9.98;;
44068;SDS011;29738;51.234;5.484;2022-10-15T02:34:20;18.90;;;9.07;;
44068;SDS011;29738;51.234;5.484;2022-10-15T02:36:49;19.25;;;9.52;;
44068;SDS011;29738;51.234;5.484;2022-10-15T02:39:17;20.13;;;9.50;;
44068;SDS011;29738;51.234;5.484;2022-10-15T02:41:48;16.48;;;9.20;;
44068;SDS011;29738;51.234;5.484;2022-10-15T02:44:15;18.23;;;9.20;;
44068;SDS011;29738;51.234;5.484;2022-10-15T02:46:41;16.92;;;8.95;;
44068;SDS011;29738;51.234;5.484;2022-10-15T02:49:07;19.50;;;9.98;;
44068;SDS011;29738;51.234;5.484;2022-10-15T02:51:33;18.23;;;9.52;;
44068;SDS011;29738;51.234;5.484;2022-10-15T02:54:00;20.65;;;11.05;;
44068;SDS011;29738;51.234;5.484;2022-10-15T02:56:28;15.73;;;8.52;;
44068;SDS011;29738;51.234;5.484;2022-10-15T02:58:54;18.75;;;9.10;;
44068;SDS011;29738;51.234;5.484;2022-10-15T03:01:20;18.95;;;9.75;;
44068;SDS011;29738;51.234;5.484;2022-10-15T03:03:46;19.55;;;9.55;;
44068;SDS011;29738;51.234;5.484;2022-10-15T03:06:12;21.08;;;10.48;;
44068;SDS011;29738;51.234;5.484;2022-10-15T03:08:39;20.42;;;11.02;;
44068;SDS011;29738;51.234;5.484;2022-10-15T03:11:06;20.73;;;10.55;;
44068;SDS011;29738;51.234;5.484;2022-10-15T03:13:34;19.42;;;10.82;;
44068;SDS011;29738;51.234;5.484;2022-10-15T03:16:05;21.85;;;11.30;;
44068;SDS011;29738;51.234;5.484;2022-10-15T03:18:32;22.25;;;11.15;;
44068;SDS011;29738;51.234;5.484;2022-10-15T03:20:58;24.25;;;11.35;;
44068;SDS011;29738;51.234;5.484;2022-10-15T03:23:24;23.73;;;11.30;;
44068;SDS011;29738;51.234;5.484;2022-10-15T03:25:51;25.55;;;12.25;;
44068;SDS011;29738;51.234;5.484;2022-10-15T03:28:18;26.00;;;12.20;;
44068;SDS011;29738;51.234;5.484;2022-10-15T03:30:44;23.98;;;12.45;;
44068;SDS011;29738;51.234;5.484;2022-10-15T03:33:10;26.50;;;13.80;;
44068;SDS011;29738;51.234;5.484;2022-10-15T03:35:36;27.00;;;13.35;;
44068;SDS011;29738;51.234;5.484;2022-10-15T03:38:02;31.50;;;13.70;;
44068;SDS011;29738;51.234;5.484;2022-10-15T03:40:29;27.17;;;13.48;;
44068;SDS011;29738;51.234;5.484;2022-10-15T03:42:55;28.83;;;13.75;;
44068;SDS011;29738;51.234;5.484;2022-10-15T03:45:21;29.73;;;14.23;;
44068;SDS011;29738;51.234;5.484;2022-10-15T03:47:48;31.35;;;15.20;;
44068;SDS011;29738;51.234;5.484;2022-10-15T03:50:14;31.13;;;15.65;;
44068;SDS011;29738;51.234;5.484;2022-10-15T03:52:40;32.70;;;15.98;;
44068;SDS011;29738;51.234;5.484;2022-10-15T03:55:06;35.50;;;16.58;;
44068;SDS011;29738;51.234;5.484;2022-10-15T03:57:33;36.50;;;17.10;;
44068;SDS011;29738;51.234;5.484;2022-10-15T03:59:59;32.42;;;15.90;;
44068;SDS011;29738;51.234;5.484;2022-10-15T04:02:25;35.83;;;17.08;;
44068;SDS011;29738;51.234;5.484;2022-10-15T04:04:51;37.05;;;17.65;;
44068;SDS011;29738;51.234;5.484;2022-10-15T04:07:18;35.88;;;17.23;;
44068;SDS011;29738;51.234;5.484;2022-10-15T04:09:45;33.70;;;16.33;;
44068;SDS011;29738;51.234;5.484;2022-10-15T04:12:11;37.05;;;17.08;;
44068;SDS011;29738;51.234;5.484;2022-10-15T04:14:37;39.50;;;17.23;;
44068;SDS011;29738;51.234;5.484;2022-10-15T04:17:03;35.13;;;17.30;;
44068;SDS011;29738;51.234;5.484;2022-10-15T04:19:29;37.70;;;17.10;;
44068;SDS011;29738;51.234;5.484;2022-10-15T04:21:55;41.85;;;17.83;;
44068;SDS011;29738;51.234;5.484;2022-10-15T04:24:21;34.08;;;16.63;;
44068;SDS011;29738;51.234;5.484;2022-10-15T04:26:47;36.55;;;17.38;;
44068;SDS011;29738;51.234;5.484;2022-10-15T04:29:13;36.35;;;16.38;;
44068;SDS011;29738;51.234;5.484;2022-10-15T04:31:39;35.35;;;16.27;;
44068;SDS011;29738;51.234;5.484;2022-10-15T04:34:05;34.55;;;16.58;;
44068;SDS011;29738;51.234;5.484;2022-10-15T04:36:31;33.35;;;16.08;;
44068;SDS011;29738;51.234;5.484;2022-10-15T04:38:58;32.47;;;16.20;;
44068;SDS011;29738;51.234;5.484;2022-10-15T04:41:23;32.40;;;16.17;;
44068;SDS011;29738;51.234;5.484;2022-10-15T04:43:49;34.78;;;15.77;;
44068;SDS011;29738;51.234;5.484;2022-10-15T04:46:15;32.50;;;15.57;;
44068;SDS011;29738;51.234;5.484;2022-10-15T04:48:41;33.28;;;15.52;;
44068;SDS011;29738;51.234;5.484;2022-10-15T04:51:08;33.53;;;14.85;;
44068;SDS011;29738;51.234;5.484;2022-10-15T04:53:34;28.27;;;13.68;;
44068;SDS011;29738;51.234;5.484;2022-10-15T04:56:01;34.38;;;14.05;;
44068;SDS011;29738;51.234;5.484;2022-10-15T04:58:35;26.20;;;13.13;;
44068;SDS011;29738;51.234;5.484;2022-10-15T05:01:06;29.23;;;13.60;;
44068;SDS011;29738;51.234;5.484;2022-10-15T05:03:36;26.63;;;13.40;;
44068;SDS011;29738;51.234;5.484;2022-10-15T05:06:05;29.60;;;13.02;;
44068;SDS011;29738;51.234;5.484;2022-10-15T05:08:36;28.67;;;14.07;;
44068;SDS011;29738;51.234;5.484;2022-10-15T05:11:07;27.65;;;12.40;;
44068;SDS011;29738;51.234;5.484;2022-10-15T05:13:35;25.58;;;12.70;;
44068;SDS011;29738;51.234;5.484;2022-10-15T05:16:08;25.35;;;12.35;;
44068;SDS011;29738;51.234;5.484;2022-10-15T05:18:42;26.92;;;12.70;;
44068;SDS011;29738;51.234;5.484;2022-10-15T05:21:09;25.17;;;12.98;;
44068;SDS011;29738;51.234;5.484;2022-10-15T05:23:36;29.85;;;12.40;;
44068;SDS011;29738;51.234;5.484;2022-10-15T05:26:04;24.15;;;12.25;;
44068;SDS011;29738;51.234;5.484;2022-10-15T05:28:31;26.52;;;12.68;;
44068;SDS011;29738;51.234;5.484;2022-10-15T05:31:04;28.30;;;11.73;;
44068;SDS011;29738;51.234;5.484;2022-10-15T05:33:31;26.52;;;12.23;;
44068;SDS011;29738;51.234;5.484;2022-10-15T05:36:06;30.65;;;14.38;;
44068;SDS011;29738;51.234;5.484;2022-10-15T05:38:51;28.15;;;12.70;;
44068;SDS011;29738;51.234;5.484;2022-10-15T05:41:22;32.28;;;12.40;;
44068;SDS011;29738;51.234;5.484;2022-10-15T05:43:48;30.27;;;12.45;;
44068;SDS011;29738;51.234;5.484;2022-10-15T05:46:15;28.60;;;12.75;;
44068;SDS011;29738;51.234;5.484;2022-10-15T05:48:41;30.33;;;12.68;;
44068;SDS011;29738;51.234;5.484;2022-10-15T05:51:09;26.48;;;12.65;;
44068;SDS011;29738;51.234;5.484;2022-10-15T05:53:36;27.08;;;12.15;;
44068;SDS011;29738;51.234;5.484;2022-10-15T05:56:02;31.55;;;12.18;;
44068;SDS011;29738;51.234;5.484;2022-10-15T05:58:31;29.33;;;12.70;;
44068;SDS011;29738;51.234;5.484;2022-10-15T06:00:58;25.73;;;12.95;;
44068;SDS011;29738;51.234;5.484;2022-10-15T06:03:25;27.67;;;12.50;;
44068;SDS011;29738;51.234;5.484;2022-10-15T06:05:52;26.50;;;12.43;;
44068;SDS011;29738;51.234;5.484;2022-10-15T06:08:19;28.80;;;11.70;;
44068;SDS011;29738;51.234;5.484;2022-10-15T06:10:45;29.83;;;11.60;;
44068;SDS011;29738;51.234;5.484;2022-10-15T06:13:12;28.90;;;12.07;;
44068;SDS011;29738;51.234;5.484;2022-10-15T06:15:39;26.77;;;11.93;;
44068;SDS011;29738;51.234;5.484;2022-10-15T06:18:06;28.52;;;12.27;;
44068;SDS011;29738;51.234;5.484;2022-10-15T06:20:32;25.88;;;11.55;;
44068;SDS011;29738;51.234;5.484;2022-10-15T06:22:58;25.40;;;11.20;;
44068;SDS011;29738;51.234;5.484;2022-10-15T06:25:24;26.42;;;11.98;;
44068;SDS011;29738;51.234;5.484;2022-10-15T06:27:50;23.88;;;10.73;;
44068;SDS011;29738;51.234;5.484;2022-10-15T06:30:16;27.52;;;11.45;;
44068;SDS011;29738;51.234;5.484;2022-10-15T06:32:46;24.40;;;11.50;;
44068;SDS011;29738;51.234;5.484;2022-10-15T06:35:16;22.52;;;10.20;;
44068;SDS011;29738;51.234;5.484;2022-10-15T06:37:44;22.48;;;10.68;;
44068;SDS011;29738;51.234;5.484;2022-10-15T06:40:10;23.27;;;10.38;;
44068;SDS011;29738;51.234;5.484;2022-10-15T06:42:36;22.73;;;9.73;;
44068;SDS011;29738;51.234;5.484;2022-10-15T06:45:03;24.48;;;11.95;;
44068;SDS011;29738;51.234;5.484;2022-10-15T06:47:29;24.55;;;10.93;;
44068;SDS011;29738;51.234;5.484;2022-10-15T06:49:55;26.85;;;10.95;;
44068;SDS011;29738;51.234;5.484;2022-10-15T06:52:21;20.70;;;9.70;;
44068;SDS011;29738;51.234;5.484;2022-10-15T06:54:47;21.70;;;9.60;;
44068;SDS011;29738;51.234;5.484;2022-10-15T06:57:13;24.02;;;10.77;;
44068;SDS011;29738;51.234;5.484;2022-10-15T06:59:39;23.75;;;10.55;;
44068;SDS011;29738;51.234;5.484;2022-10-15T07:02:05;22.33;;;9.77;;
44068;SDS011;29738;51.234;5.484;2022-10-15T07:04:31;21.50;;;9.48;;
44068;SDS011;29738;51.234;5.484;2022-10-15T07:06:56;19.60;;;8.70;;
44068;SDS011;29738;51.234;5.484;2022-10-15T07:09:22;19.98;;;9.70;;
44068;SDS011;29738;51.234;5.484;2022-10-15T07:11:48;18.17;;;8.50;;
44068;SDS011;29738;51.234;5.484;2022-10-15T07:14:14;19.35;;;8.88;;
44068;SDS011;29738;51.234;5.484;2022-10-15T07:16:39;16.27;;;8.50;;
44068;SDS011;29738;51.234;5.484;2022-10-15T07:19:05;16.63;;;7.75;;
44068;SDS011;29738;51.234;5.484;2022-10-15T07:21:31;16.90;;;7.28;;
44068;SDS011;29738;51.234;5.484;2022-10-15T07:23:57;18.92;;;7.90;;
44068;SDS011;29738;51.234;5.484;2022-10-15T07:26:25;17.02;;;7.22;;
44068;SDS011;29738;51.234;5.484;2022-10-15T07:28:53;15.75;;;6.60;;
44068;SDS011;29738;51.234;5.484;2022-10-15T07:31:19;15.70;;;6.90;;
44068;SDS011;29738;51.234;5.484;2022-10-15T07:33:45;16.17;;;6.50;;
44068;SDS011;29738;51.234;5.484;2022-10-15T07:36:11;15.68;;;6.15;;
44068;SDS011;29738;51.234;5.484;2022-10-15T07:38:37;14.07;;;6.55;;
44068;SDS011;29738;51.234;5.484;2022-10-15T07:41:04;13.32;;;5.85;;
44068;SDS011;29738;51.234;5.484;2022-10-15T07:43:31;14.05;;;5.38;;
44068;SDS011;29738;51.234;5.484;2022-10-15T07:45:58;11.88;;;4.93;;
44068;SDS011;29738;51.234;5.484;2022-10-15T07:48:24;11.02;;;4.13;;
44068;SDS011;29738;51.234;5.484;2022-10-15T07:50:54;11.43;;;4.97;;
44068;SDS011;29738;51.234;5.484;2022-10-15T07:53:21;10.50;;;4.47;;
44068;SDS011;29738;51.234;5.484;2022-10-15T07:55:47;10.98;;;4.85;;
44068;SDS011;29738;51.234;5.484;2022-10-15T07:58:13;11.82;;;4.35;;
44068;SDS011;29738;51.234;5.484;2022-10-15T08:00:38;10.25;;;4.50;;
44068;SDS011;29738;51.234;5.484;2022-10-15T08:03:04;11.80;;;5.63;;
44068;SDS011;29738;51.234;5.484;2022-10-15T08:05:30;13.45;;;5.20;;
44068;SDS011;29738;51.234;5.484;2022-10-15T08:07:56;13.15;;;5.25;;
44068;SDS011;29738;51.234;5.484;2022-10-15T08:10:21;11.90;;;4.82;;
44068;SDS011;29738;51.234;5.484;2022-10-15T08:12:47;9.82;;;4.90;;
44068;SDS011;29738;51.234;5.484;2022-10-15T08:15:13;11.20;;;5.00;;
44068;SDS011;29738;51.234;5.484;2022-10-15T08:17:39;11.50;;;5.10;;
44068;SDS011;29738;51.234;5.484;2022-10-15T08:20:04;11.68;;;5.43;;
44068;SDS011;29738;51.234;5.484;2022-10-15T08:22:31;10.20;;;4.47;;
44068;SDS011;29738;51.234;5.484;2022-10-15T08:24:58;11.60;;;5.28;;
44068;SDS011;29738;51.234;5.484;2022-10-15T08:27:23;9.30;;;4.43;;
44068;SDS011;29738;51.234;5.484;2022-10-15T08:29:49;9.80;;;4.22;;
44068;SDS011;29738;51.234;5.484;2022-10-15T08:32:15;10.18;;;4.30;;
44068;SDS011;29738;51.234;5.484;2022-10-15T08:34:41;9.27;;;3.90;;
44068;SDS011;29738;51.234;5.484;2022-10-15T08:37:07;7.32;;;3.33;;
44068;SDS011;29738;51.234;5.484;2022-10-15T08:39:33;9.57;;;3.72;;
44068;SDS011;29738;51.234;5.484;2022-10-15T08:42:21;10.35;;;3.55;;
44068;SDS011;29738;51.234;5.484;2022-10-15T08:44:50;6.53;;;3.05;;
44068;SDS011;29738;51.234;5.484;2022-10-15T08:47:33;8.60;;;3.38;;
44068;SDS011;29738;51.234;5.484;2022-10-15T08:50:11;7.95;;;3.40;;
44068;SDS011;29738;51.234;5.484;2022-10-15T08:52:52;7.75;;;3.55;;
44068;SDS011;29738;51.234;5.484;2022-10-15T08:55:20;6.93;;;3.00;;
44068;SDS011;29738;51.234;5.484;2022-10-15T09:00:39;6.53;;;2.85;;
44068;SDS011;29738;51.234;5.484;2022-10-15T09:03:27;6.38;;;2.72;;
44068;SDS011;29738;51.234;5.484;2022-10-15T09:06:15;7.13;;;2.80;;
44068;SDS011;29738;51.234;5.484;2022-10-15T09:14:50;7.10;;;3.28;;
44068;SDS011;29738;51.234;5.484;2022-10-15T09:17:19;6.95;;;3.22;;
44068;SDS011;29738;51.234;5.484;2022-10-15T09:19:55;7.75;;;3.60;;
44068;SDS011;29738;51.234;5.484;2022-10-15T09:22:23;5.50;;;2.30;;
44068;SDS011;29738;51.234;5.484;2022-10-15T09:24:51;6.63;;;3.00;;
44068;SDS011;29738;51.234;5.484;2022-10-15T09:27:28;6.03;;;2.70;;
44068;SDS011;29738;51.234;5.484;2022-10-15T09:35:31;4.13;;;1.80;;
44068;SDS011;29738;51.234;5.484;2022-10-15T09:44:03;5.10;;;2.42;;
44068;SDS011;29738;51.234;5.484;2022-10-15T09:46:41;4.65;;;2.35;;
44068;SDS011;29738;51.234;5.484;2022-10-15T09:54:36;5.53;;;1.65;;
44068;SDS011;29738;51.234;5.484;2022-10-15T09:57:16;4.70;;;1.77;;
44068;SDS011;29738;51.234;5.484;2022-10-15T09:59:56;3.90;;;1.55;;
44068;SDS011;29738;51.234;5.484;2022-10-15T10:02:27;6.88;;;1.70;;
44068;SDS011;29738;51.234;5.484;2022-10-15T10:04:53;3.38;;;1.35;;
44068;SDS011;29738;51.234;5.484;2022-10-15T10:07:36;4.18;;;1.65;;
44068;SDS011;29738;51.234;5.484;2022-10-15T10:12:46;3.83;;;1.33;;
44068;SDS011;29738;51.234;5.484;2022-10-15T10:17:58;5.45;;;1.50;;
44068;SDS011;29738;51.234;5.484;2022-10-15T10:20:28;4.85;;;1.80;;
44068;SDS011;29738;51.234;5.484;2022-10-15T10:27:50;6.22;;;2.17;;
44068;SDS011;29738;51.234;5.484;2022-10-15T10:30:19;5.10;;;2.35;;
44068;SDS011;29738;51.234;5.484;2022-10-15T10:32:45;4.70;;;1.83;;
44068;SDS011;29738;51.234;5.484;2022-10-15T10:35:18;5.15;;;1.88;;
44068;SDS011;29738;51.234;5.484;2022-10-15T10:37:46;3.75;;;1.60;;
44068;SDS011;29738;51.234;5.484;2022-10-15T10:40:29;3.00;;;1.20;;
44068;SDS011;29738;51.234;5.484;2022-10-15T10:43:09;3.53;;;1.20;;
44068;SDS011;29738;51.234;5.484;2022-10-15T10:45:51;3.60;;;1.40;;
44068;SDS011;29738;51.234;5.484;2022-10-15T10:48:18;2.22;;;1.08;;
44068;SDS011;29738;51.234;5.484;2022-10-15T10:50:45;5.60;;;1.40;;
44068;SDS011;29738;51.234;5.484;2022-10-15T10:53:22;2.78;;;1.00;;
44068;SDS011;29738;51.234;5.484;2022-10-15T10:55:49;3.13;;;1.23;;
44068;SDS011;29738;51.234;5.484;2022-10-15T10:58:19;2.92;;;1.20;;
44068;SDS011;29738;51.234;5.484;2022-10-15T11:00:47;3.42;;;1.27;;
44068;SDS011;29738;51.234;5.484;2022-10-15T11:03:21;3.45;;;1.20;;
44068;SDS011;29738;51.234;5.484;2022-10-15T11:05:58;3.40;;;1.40;;
44068;SDS011;29738;51.234;5.484;2022-10-15T11:11:03;4.03;;;1.10;;
44068;SDS011;29738;51.234;5.484;2022-10-15T11:16:14;2.35;;;0.90;;
44068;SDS011;29738;51.234;5.484;2022-10-15T11:18:51;4.25;;;1.80;;
44068;SDS011;29738;51.234;5.484;2022-10-15T11:21:39;3.05;;;1.27;;
44068;SDS011;29738;51.234;5.484;2022-10-15T11:24:16;3.42;;;1.48;;
44068;SDS011;29738;51.234;5.484;2022-10-15T11:30:04;3.28;;;1.00;;
44068;SDS011;29738;51.234;5.484;2022-10-15T11:35:42;2.67;;;0.98;;
44068;SDS011;29738;51.234;5.484;2022-10-15T11:41:28;3.55;;;1.27;;
44068;SDS011;29738;51.234;5.484;2022-10-15T11:52:22;4.30;;;1.45;;
44068;SDS011;29738;51.234;5.484;2022-10-15T11:55:19;3.30;;;1.45;;
44068;SDS011;29738;51.234;5.484;2022-10-15T11:57:53;4.28;;;1.50;;
44068;SDS011;29738;51.234;5.484;2022-10-15T12:02:55;6.60;;;3.15;;
44068;SDS011;29738;51.234;5.484;2022-10-15T12:05:33;5.55;;;2.53;;
44068;SDS011;29738;51.234;5.484;2022-10-15T12:08:02;4.25;;;2.00;;
44068;SDS011;29738;51.234;5.484;2022-10-15T12:17:10;3.80;;;1.90;;
44068;SDS011;29738;51.234;5.484;2022-10-15T12:19:59;5.38;;;2.60;;
44068;SDS011;29738;51.234;5.484;2022-10-15T12:28:01;5.10;;;2.20;;
44068;SDS011;29738;51.234;5.484;2022-10-15T12:30:58;4.20;;;1.77;;
44068;SDS011;29738;51.234;5.484;2022-10-15T12:33:36;4.55;;;2.33;;
44068;SDS011;29738;51.234;5.484;2022-10-15T12:38:50;4.30;;;2.00;;
44068;SDS011;29738;51.234;5.484;2022-10-15T12:41:20;4.18;;;1.70;;
44068;SDS011;29738;51.234;5.484;2022-10-15T12:44:03;4.45;;;1.60;;
44068;SDS011;29738;51.234;5.484;2022-10-15T12:46:38;3.60;;;1.33;;
44068;SDS011;29738;51.234;5.484;2022-10-15T12:51:56;5.35;;;2.35;;
44068;SDS011;29738;51.234;5.484;2022-10-15T12:57:02;29.95;;;18.65;;
44068;SDS011;29738;51.234;5.484;2022-10-15T12:59:52;4.45;;;1.85;;
44068;SDS011;29738;51.234;5.484;2022-10-15T13:05:07;3.92;;;1.77;;
44068;SDS011;29738;51.234;5.484;2022-10-15T13:07:47;3.67;;;1.83;;
44068;SDS011;29738;51.234;5.484;2022-10-15T13:10:18;4.80;;;1.95;;
44068;SDS011;29738;51.234;5.484;2022-10-15T13:12:54;4.22;;;2.30;;
44068;SDS011;29738;51.234;5.484;2022-10-15T13:15:24;4.07;;;1.67;;
44068;SDS011;29738;51.234;5.484;2022-10-15T13:17:51;4.45;;;1.80;;
44068;SDS011;29738;51.234;5.484;2022-10-15T13:20:32;2.90;;;1.40;;
44068;SDS011;29738;51.234;5.484;2022-10-15T13:23:17;4.28;;;1.80;;
44068;SDS011;29738;51.234;5.484;2022-10-15T13:25:49;3.15;;;1.30;;
44068;SDS011;29738;51.234;5.484;2022-10-15T13:28:32;4.60;;;2.08;;
44068;SDS011;29738;51.234;5.484;2022-10-15T13:31:01;3.75;;;1.48;;
44068;SDS011;29738;51.234;5.484;2022-10-15T13:33:29;4.43;;;1.83;;
44068;SDS011;29738;51.234;5.484;2022-10-15T13:36:03;5.50;;;1.90;;
44068;SDS011;29738;51.234;5.484;2022-10-15T13:38:30;4.88;;;1.88;;
44068;SDS011;29738;51.234;5.484;2022-10-15T13:40:57;5.68;;;1.90;;
44068;SDS011;29738;51.234;5.484;2022-10-15T13:43:24;5.47;;;2.13;;
44068;SDS011;29738;51.234;5.484;2022-10-15T13:45:55;5.47;;;2.22;;
44068;SDS011;29738;51.234;5.484;2022-10-15T13:48:24;5.67;;;2.07;;
44068;SDS011;29738;51.234;5.484;2022-10-15T13:50:58;31.55;;;26.05;;
44068;SDS011;29738;51.234;5.484;2022-10-15T13:55:59;26.20;;;20.38;;
44068;SDS011;29738;51.234;5.484;2022-10-15T13:58:28;8.38;;;5.72;;
44068;SDS011;29738;51.234;5.484;2022-10-15T14:00:58;36.92;;;28.45;;
44068;SDS011;29738;51.234;5.484;2022-10-15T14:03:33;7.55;;;4.95;;
44068;SDS011;29738;51.234;5.484;2022-10-15T14:06:34;5.03;;;2.83;;
44068;SDS011;29738;51.234;5.484;2022-10-15T14:08:55;4.45;;;2.15;;
44068;SDS011;29738;51.234;5.484;2022-10-15T14:11:22;6.72;;;2.95;;
44068;SDS011;29738;51.234;5.484;2022-10-15T14:13:50;4.97;;;2.28;;
44068;SDS011;29738;51.234;5.484;2022-10-15T14:16:26;5.50;;;2.75;;
44068;SDS011;29738;51.234;5.484;2022-10-15T14:19:10;4.55;;;2.20;;
44068;SDS011;29738;51.234;5.484;2022-10-15T14:21:41;5.15;;;1.98;;
44068;SDS011;29738;51.234;5.484;2022-10-15T14:24:15;4.20;;;1.80;;
44068;SDS011;29738;51.234;5.484;2022-10-15T14:26:44;3.78;;;1.67;;
44068;SDS011;29738;51.234;5.484;2022-10-15T14:29:27;3.03;;;1.27;;
44068;SDS011;29738;51.234;5.484;2022-10-15T14:32:00;4.28;;;1.33;;
44068;SDS011;29738;51.234;5.484;2022-10-15T14:36:57;3.97;;;1.40;;
44068;SDS011;29738;51.234;5.484;2022-10-15T14:42:00;4.45;;;1.35;;
44068;SDS011;29738;51.234;5.484;2022-10-15T14:44:43;3.93;;;1.70;;
44068;SDS011;29738;51.234;5.484;2022-10-15T14:47:17;3.20;;;1.25;;
44068;SDS011;29738;51.234;5.484;2022-10-15T14:49:43;2.17;;;0.85;;
44068;SDS011;29738;51.234;5.484;2022-10-15T14:52:14;2.08;;;0.70;;
44068;SDS011;29738;51.234;5.484;2022-10-15T14:54:45;1.88;;;0.73;;
44068;SDS011;29738;51.234;5.484;2022-10-15T14:57:21;1.90;;;0.88;;
44068;SDS011;29738;51.234;5.484;2022-10-15T14:59:51;1.42;;;0.70;;
44068;SDS011;29738;51.234;5.484;2022-10-15T15:02:19;3.85;;;1.80;;
44068;SDS011;29738;51.234;5.484;2022-10-15T15:04:52;2.03;;;0.70;;
44068;SDS011;29738;51.234;5.484;2022-10-15T15:07:28;9.32;;;6.45;;
44068;SDS011;29738;51.234;5.484;2022-10-15T15:09:54;1.42;;;0.70;;
44068;SDS011;29738;51.234;5.484;2022-10-15T15:12:21;2.92;;;0.90;;
44068;SDS011;29738;51.234;5.484;2022-10-15T15:14:48;4.85;;;1.25;;
44068;SDS011;29738;51.234;5.484;2022-10-15T15:17:15;1.88;;;0.70;;
44068;SDS011;29738;51.234;5.484;2022-10-15T15:19:43;2.40;;;0.75;;
44068;SDS011;29738;51.234;5.484;2022-10-15T15:22:10;2.08;;;0.70;;
44068;SDS011;29738;51.234;5.484;2022-10-15T15:24:40;2.70;;;1.10;;
44068;SDS011;29738;51.234;5.484;2022-10-15T15:27:06;2.33;;;0.98;;
44068;SDS011;29738;51.234;5.484;2022-10-15T15:29:37;3.33;;;0.70;;
44068;SDS011;29738;51.234;5.484;2022-10-15T15:32:02;2.80;;;1.00;;
44068;SDS011;29738;51.234;5.484;2022-10-15T15:34:29;2.90;;;0.88;;
44068;SDS011;29738;51.234;5.484;2022-10-15T15:36:54;1.50;;;0.68;;
44068;SDS011;29738;51.234;5.484;2022-10-15T15:39:20;2.88;;;1.00;;
44068;SDS011;29738;51.234;5.484;2022-10-15T15:41:46;3.85;;;0.90;;
44068;SDS011;29738;51.234;5.484;2022-10-15T15:44:13;2.78;;;0.95;;
44068;SDS011;29738;51.234;5.484;2022-10-15T15:46:38;2.85;;;0.98;;
44068;SDS011;29738;51.234;5.484;2022-10-15T15:49:04;3.33;;;1.00;;
44068;SDS011;29738;51.234;5.484;2022-10-15T15:51:30;2.28;;;0.90;;
44068;SDS011;29738;51.234;5.484;2022-10-15T15:53:57;3.80;;;1.00;;
44068;SDS011;29738;51.234;5.484;2022-10-15T15:56:23;2.35;;;1.08;;
44068;SDS011;29738;51.234;5.484;2022-10-15T15:58:49;2.20;;;0.80;;
44068;SDS011;29738;51.234;5.484;2022-10-15T16:01:18;2.03;;;0.88;;
44068;SDS011;29738;51.234;5.484;2022-10-15T16:03:44;2.90;;;0.90;;
44068;SDS011;29738;51.234;5.484;2022-10-15T16:06:10;3.88;;;1.20;;
44068;SDS011;29738;51.234;5.484;2022-10-15T16:08:37;16.67;;;8.00;;
44068;SDS011;29738;51.234;5.484;2022-10-15T16:11:03;11.27;;;5.90;;
44068;SDS011;29738;51.234;5.484;2022-10-15T16:13:30;14.20;;;10.05;;
44068;SDS011;29738;51.234;5.484;2022-10-15T16:15:56;13.50;;;12.02;;
44068;SDS011;29738;51.234;5.484;2022-10-15T16:18:22;7.75;;;6.22;;
44068;SDS011;29738;51.234;5.484;2022-10-15T16:20:48;8.02;;;4.43;;
44068;SDS011;29738;51.234;5.484;2022-10-15T16:23:14;7.28;;;3.90;;
44068;SDS011;29738;51.234;5.484;2022-10-15T16:25:40;7.25;;;4.05;;
44068;SDS011;29738;51.234;5.484;2022-10-15T16:28:06;5.45;;;3.53;;
44068;SDS011;29738;51.234;5.484;2022-10-15T16:30:32;16.52;;;12.30;;
44068;SDS011;29738;51.234;5.484;2022-10-15T16:32:58;8.50;;;4.75;;
44068;SDS011;29738;51.234;5.484;2022-10-15T16:35:24;8.25;;;4.40;;
44068;SDS011;29738;51.234;5.484;2022-10-15T16:37:50;8.40;;;3.10;;
44068;SDS011;29738;51.234;5.484;2022-10-15T16:40:19;5.15;;;2.28;;
44068;SDS011;29738;51.234;5.484;2022-10-15T16:42:46;7.30;;;3.38;;
44068;SDS011;29738;51.234;5.484;2022-10-15T16:45:12;7.93;;;4.15;;
44068;SDS011;29738;51.234;5.484;2022-10-15T16:47:38;12.23;;;5.47;;
44068;SDS011;29738;51.234;5.484;2022-10-15T16:50:03;9.88;;;5.10;;
44068;SDS011;29738;51.234;5.484;2022-10-15T16:52:29;7.65;;;4.88;;
44068;SDS011;29738;51.234;5.484;2022-10-15T16:54:57;5.63;;;2.85;;